sensor_id;sensor_type;location;lat;lon;timestamp;pressure;altitude;pressure_sealevel;temperature;humidity
29935;BME280;19905;53.370;-6.314;2023-04-19T00:02:28;102456.28;;;9.32;100.00
29935;BME280;19905;53.370;-6.314;2023-04-19T00:04:57;102454.31;;;9.37;100.00
29935;BME280;19905;53.370;-6.314;2023-04-19T00:07:26;102458.28;;;9.27;100.00
29935;BME280;19905;53.370;-6.314;2023-04-19T00:09:55;102456.69;;;9.23;100.00
29935;BME280;19905;53.370;-6.314;2023-04-19T00:12:25;102461.97;;;9.23;100.00
29935;BME280;19905;53.370;-6.314;2023-04-19T00:14:56;102468.22;;;9.21;100.00
29935;BME280;19905;53.370;-6.314;2023-04-19T00:17:24;102462.16;;;9.19;100.00
29935;BME280;19905;53.370;-6.314;2023-04-19T00:19:53;102457.84;;;9.16;100.00
29935;BME280;19905;53.370;-6.314;2023-04-19T00:22:22;102421.28;;;9.08;100.00
29935;BME280;19905;53.370;-6.314;2023-04-19T00:24:51;102448.44;;;9.10;100.00
29935;BME280;19905;53.370;-6.314;2023-04-19T00:27:19;102447.03;;;9.02;100.00
29935;BME280;19905;53.370;-6.314;2023-04-19T00:29:50;102441.72;;;9.03;100.00
29935;BME280;19905;53.370;-6.314;2023-04-19T00:32:18;102439.28;;;8.99;100.00
29935;BME280;19905;53.370;-6.314;2023-04-19T00:34:47;102442.97;;;8.95;100.00
29935;BME280;19905;53.370;-6.314;2023-04-19T00:37:16;102440.19;;;8.98;100.00
29935;BME280;19905;53.370;-6.314;2023-04-19T00:39:44;102429.06;;;8.91;100.00
29935;BME280;19905;53.370;-6.314;2023-04-19T00:42:13;102426.50;;;8.89;100.00
29935;BME280;19905;53.370;-6.314;2023-04-19T00:44:42;102428.47;;;8.84;100.00
29935;BME280;19905;53.370;-6.314;2023-04-19T00:47:13;102428.47;;;8.84;100.00
29935;BME280;19905;53.370;-6.314;2023-04-19T00:49:42;102433.13;;;8.78;100.00
29935;BME280;19905;53.370;-6.314;2023-04-19T00:52:10;102428.84;;;8.75;100.00
29935;BME280;19905;53.370;-6.314;2023-04-19T00:54:41;102428.13;;;8.72;100.00
29935;BME280;19905;53.370;-6.314;2023-04-19T00:57:11;102428.16;;;8.70;100.00
29935;BME280;19905;53.370;-6.314;2023-04-19T00:59:40;102429.06;;;8.69;100.00
29935;BME280;19905;53.370;-6.314;2023-04-19T01:02:09;102431.13;;;8.62;100.00
29935;BME280;19905;53.370;-6.314;2023-04-19T01:04:39;102421.38;;;8.64;100.00
29935;BME280;19905;53.370;-6.314;2023-04-19T01:07:08;102412.72;;;8.61;100.00
29935;BME280;19905;53.370;-6.314;2023-04-19T01:09:39;102426.97;;;8.57;100.00
29935;BME280;19905;53.370;-6.314;2023-04-19T01:12:08;102425.00;;;8.62;100.00
29935;BME280;19905;53.370;-6.314;2023-04-19T01:14:36;102425.84;;;8.62;100.00
29935;BME280;19905;53.370;-6.314;2023-04-19T01:17:06;102429.44;;;8.60;100.00
29935;BME280;19905;53.370;-6.314;2023-04-19T01:19:36;102428.84;;;8.53;100.00
29935;BME280;19905;53.370;-6.314;2023-04-19T01:22:08;102432.59;;;8.48;100.00
29935;BME280;19905;53.370;-6.314;2023-04-19T01:24:39;102438.75;;;8.47;100.00
29935;BME280;19905;53.370;-6.314;2023-04-19T01:27:08;102440.63;;;8.45;100.00
29935;BME280;19905;53.370;-6.314;2023-04-19T01:29:37;102440.81;;;8.40;100.00
29935;BME280;19905;53.370;-6.314;2023-04-19T01:32:05;102445.97;;;8.43;100.00
29935;BME280;19905;53.370;-6.314;2023-04-19T01:34:34;102444.22;;;8.42;100.00
29935;BME280;19905;53.370;-6.314;2023-04-19T01:37:02;102445.47;;;8.32;100.00
29935;BME280;19905;53.370;-6.314;2023-04-19T01:39:31;102440.06;;;8.36;100.00
29935;BME280;19905;53.370;-6.314;2023-04-19T01:42:01;102441.00;;;8.34;100.00
29935;BME280;19905;53.370;-6.314;2023-04-19T01:44:30;102437.50;;;8.33;100.00
29935;BME280;19905;53.370;-6.314;2023-04-19T01:46:58;102426.25;;;8.30;100.00
29935;BME280;19905;53.370;-6.314;2023-04-19T01:49:27;102424.66;;;8.26;100.00
29935;BME280;19905;53.370;-6.314;2023-04-19T01:51:56;102432.84;;;8.18;100.00
29935;BME280;19905;53.370;-6.314;2023-04-19T01:54:24;102430.09;;;8.21;100.00
29935;BME280;19905;53.370;-6.314;2023-04-19T01:56:53;102430.28;;;8.17;100.00
29935;BME280;19905;53.370;-6.314;2023-04-19T01:59:23;102426.13;;;8.11;100.00
29935;BME280;19905;53.370;-6.314;2023-04-19T02:01:53;102427.00;;;8.10;100.00
29935;BME280;19905;53.370;-6.314;2023-04-19T02:04:21;102414.00;;;8.07;100.00
29935;BME280;19905;53.370;-6.314;2023-04-19T02:06:50;102418.25;;;8.09;100.00
29935;BME280;19905;53.370;-6.314;2023-04-19T02:09:18;102419.13;;;8.10;100.00
29935;BME280;19905;53.370;-6.314;2023-04-19T02:11:47;102425.31;;;8.09;100.00
29935;BME280;19905;53.370;-6.314;2023-04-19T02:14:16;102421.88;;;8.07;100.00
29935;BME280;19905;53.370;-6.314;2023-04-19T02:16:47;102425.47;;;8.04;100.00
29935;BME280;19905;53.370;-6.314;2023-04-19T02:19:16;102414.94;;;8.04;100.00
29935;BME280;19905;53.370;-6.314;2023-04-19T02:21:44;102417.94;;;7.95;100.00
29935;BME280;19905;53.370;-6.314;2023-04-19T02:24:13;102409.25;;;7.93;100.00
29935;BME280;19905;53.370;-6.314;2023-04-19T02:26:42;102400.34;;;7.97;100.00
29935;BME280;19905;53.370;-6.314;2023-04-19T02:29:10;102389.91;;;7.94;100.00
29935;BME280;19905;53.370;-6.314;2023-04-19T02:31:39;102391.72;;;7.92;100.00
29935;BME280;19905;53.370;-6.314;2023-04-19T02:34:09;102396.13;;;7.92;100.00
29935;BME280;19905;53.370;-6.314;2023-04-19T02:36:38;102399.63;;;7.92;100.00
29935;BME280;19905;53.370;-6.314;2023-04-19T02:39:06;102393.50;;;7.92;100.00
29935;BME280;19905;53.370;-6.314;2023-04-19T02:41:36;102401.47;;;7.90;100.00
29935;BME280;19905;53.370;-6.314;2023-04-19T02:44:05;102392.91;;;7.85;100.00
29935;BME280;19905;53.370;-6.314;2023-04-19T02:46:34;102397.31;;;7.84;100.00
29935;BME280;19905;53.370;-6.314;2023-04-19T02:49:03;102393.00;;;7.82;100.00
29935;BME280;19905;53.370;-6.314;2023-04-19T02:51:35;102381.81;;;7.77;100.00
29935;BME280;19905;53.370;-6.314;2023-04-19T02:54:05;102380.03;;;7.77;100.00
29935;BME280;19905;53.370;-6.314;2023-04-19T02:56:35;102379.25;;;7.75;100.00
29935;BME280;19905;53.370;-6.314;2023-04-19T02:59:04;102360.94;;;7.72;100.00
29935;BME280;19905;53.370;-6.314;2023-04-19T03:01:32;102362.72;;;7.72;100.00
29935;BME280;19905;53.370;-6.314;2023-04-19T03:04:01;102354.94;;;7.69;100.00
29935;BME280;19905;53.370;-6.314;2023-04-19T03:06:30;102357.56;;;7.69;100.00
29935;BME280;19905;53.370;-6.314;2023-04-19T03:09:00;102352.34;;;7.67;100.00
29935;BME280;19905;53.370;-6.314;2023-04-19T03:11:28;102357.72;;;7.64;100.00
29935;BME280;19905;53.370;-6.314;2023-04-19T03:13:57;102362.06;;;7.65;100.00
29935;BME280;19905;53.370;-6.314;2023-04-19T03:16:26;102370.09;;;7.62;100.00
29935;BME280;19905;53.370;-6.314;2023-04-19T03:18:56;102371.91;;;7.60;100.00
29935;BME280;19905;53.370;-6.314;2023-04-19T03:21:25;102372.75;;;7.60;100.00
29935;BME280;19905;53.370;-6.314;2023-04-19T03:23:55;102371.19;;;7.56;100.00
29935;BME280;19905;53.370;-6.314;2023-04-19T03:26:25;102370.28;;;7.56;100.00
29935;BME280;19905;53.370;-6.314;2023-04-19T03:28:59;102353.63;;;7.57;100.00
29935;BME280;19905;53.370;-6.314;2023-04-19T03:31:28;102337.88;;;7.55;100.00
29935;BME280;19905;53.370;-6.314;2023-04-19T03:33:57;102337.03;;;7.55;100.00
29935;BME280;19905;53.370;-6.314;2023-04-19T03:36:25;102360.84;;;7.52;100.00
29935;BME280;19905;53.370;-6.314;2023-04-19T03:38:54;102365.19;;;7.53;100.00
29935;BME280;19905;53.370;-6.314;2023-04-19T03:41:25;102357.31;;;7.51;100.00
29935;BME280;19905;53.370;-6.314;2023-04-19T03:43:53;102353.81;;;7.52;100.00
29935;BME280;19905;53.370;-6.314;2023-04-19T03:46:23;102359.84;;;7.54;100.00
29935;BME280;19905;53.370;-6.314;2023-04-19T03:48:52;102358.88;;;7.57;100.00
29935;BME280;19905;53.370;-6.314;2023-04-19T03:51:21;102359.78;;;7.56;100.00
29935;BME280;19905;53.370;-6.314;2023-04-19T03:53:49;102345.00;;;7.53;100.00
29935;BME280;19905;53.370;-6.314;2023-04-19T03:56:19;102341.50;;;7.53;100.00
29935;BME280;19905;53.370;-6.314;2023-04-19T03:58:51;102339.81;;;7.52;100.00
29935;BME280;19905;53.370;-6.314;2023-04-19T04:01:20;102334.56;;;7.50;100.00
29935;BME280;19905;53.370;-6.314;2023-04-19T04:03:50;102337.28;;;7.49;100.00
29935;BME280;19905;53.370;-6.314;2023-04-19T04:06:19;102358.22;;;7.52;100.00
29935;BME280;19905;53.370;-6.314;2023-04-19T04:08:48;102367.00;;;7.51;100.00
29935;BME280;19905;53.370;-6.314;2023-04-19T04:11:16;102374.88;;;7.51;100.00
29935;BME280;19905;53.370;-6.314;2023-04-19T04:13:44;102377.34;;;7.55;100.00
29935;BME280;19905;53.370;-6.314;2023-04-19T04:16:16;102380.72;;;7.59;100.00
29935;BME280;19905;53.370;-6.314;2023-04-19T04:18:44;102383.44;;;7.56;100.00
29935;BME280;19905;53.370;-6.314;2023-04-19T04:21:13;102374.53;;;7.60;100.00
29935;BME280;19905;53.370;-6.314;2023-04-19T04:23:41;102375.34;;;7.62;100.00
29935;BME280;19905;53.370;-6.314;2023-04-19T04:26:10;102376.03;;;7.67;100.00
29935;BME280;19905;53.370;-6.314;2023-04-19T04:28:40;102374.88;;;7.74;100.00
29935;BME280;19905;53.370;-6.314;2023-04-19T04:31:08;102373.91;;;7.77;100.00
29935;BME280;19905;53.370;-6.314;2023-04-19T04:33:40;102380.94;;;7.76;100.00
29935;BME280;19905;53.370;-6.314;2023-04-19T04:36:08;102385.00;;;7.85;100.00
29935;BME280;19905;53.370;-6.314;2023-04-19T04:38:39;102386.66;;;7.87;100.00
29935;BME280;19905;53.370;-6.314;2023-04-19T04:41:07;102393.66;;;7.88;100.00
29935;BME280;19905;53.370;-6.314;2023-04-19T04:43:36;102393.56;;;7.90;100.00
29935;BME280;19905;53.370;-6.314;2023-04-19T04:46:07;102390.94;;;7.90;100.00
29935;BME280;19905;53.370;-6.314;2023-04-19T04:48:36;102395.59;;;7.83;100.00
29935;BME280;19905;53.370;-6.314;2023-04-19T04:51:06;102380.50;;;7.88;100.00
29935;BME280;19905;53.370;-6.314;2023-04-19T04:53:36;102384.19;;;7.83;100.00
29935;BME280;19905;53.370;-6.314;2023-04-19T04:56:05;102379.81;;;7.83;100.00
29935;BME280;19905;53.370;-6.314;2023-04-19T04:58:35;102368.41;;;7.83;100.00
29935;BME280;19905;53.370;-6.314;2023-04-19T05:01:05;102364.03;;;7.83;100.00
29935;BME280;19905;53.370;-6.314;2023-04-19T05:03:34;102358.88;;;7.80;100.00
29935;BME280;19905;53.370;-6.314;2023-04-19T05:08:33;102345.81;;;7.77;100.00
29935;BME280;19905;53.370;-6.314;2023-04-19T05:11:02;102349.28;;;7.79;100.00
29935;BME280;19905;53.370;-6.314;2023-04-19T05:13:31;102339.97;;;7.71;100.00
29935;BME280;19905;53.370;-6.314;2023-04-19T05:16:00;102346.84;;;7.73;100.00
29935;BME280;19905;53.370;-6.314;2023-04-19T05:18:28;102356.19;;;7.82;100.00
29935;BME280;19905;53.370;-6.314;2023-04-19T05:20:59;102359.44;;;7.88;100.00
29935;BME280;19905;53.370;-6.314;2023-04-19T05:23:28;102372.47;;;7.92;100.00
29935;BME280;19905;53.370;-6.314;2023-04-19T05:25:59;102372.47;;;7.92;100.00
29935;BME280;19905;53.370;-6.314;2023-04-19T05:28:27;102376.00;;;7.90;100.00
29935;BME280;19905;53.370;-6.314;2023-04-19T05:30:55;102383.91;;;7.90;100.00
29935;BME280;19905;53.370;-6.314;2023-04-19T05:33:24;102385.50;;;7.95;100.00
29935;BME280;19905;53.370;-6.314;2023-04-19T05:35:55;102395.41;;;7.88;100.00
29935;BME280;19905;53.370;-6.314;2023-04-19T05:38:24;102399.59;;;7.94;100.00
29935;BME280;19905;53.370;-6.314;2023-04-19T05:40:53;102395.19;;;7.94;100.00
29935;BME280;19905;53.370;-6.314;2023-04-19T05:43:23;102389.91;;;7.94;100.00
29935;BME280;19905;53.370;-6.314;2023-04-19T05:45:51;102389.84;;;7.96;100.00
29935;BME280;19905;53.370;-6.314;2023-04-19T05:48:22;102381.94;;;7.96;100.00
29935;BME280;19905;53.370;-6.314;2023-04-19T05:50:51;102377.63;;;7.95;100.00
29935;BME280;19905;53.370;-6.314;2023-04-19T05:53:22;102362.44;;;8.01;100.00
29935;BME280;19905;53.370;-6.314;2023-04-19T05:55:51;102368.13;;;7.90;100.00
29935;BME280;19905;53.370;-6.314;2023-04-19T05:58:19;102368.13;;;7.90;100.00
29935;BME280;19905;53.370;-6.314;2023-04-19T06:00:51;102359.31;;;7.92;100.00
29935;BME280;19905;53.370;-6.314;2023-04-19T06:03:20;102363.53;;;7.96;100.00
29935;BME280;19905;53.370;-6.314;2023-04-19T06:05:49;102365.25;;;7.97;100.00
29935;BME280;19905;53.370;-6.314;2023-04-19T06:08:17;102369.53;;;7.99;100.00
29935;BME280;19905;53.370;-6.314;2023-04-19T06:10:46;102368.31;;;8.08;100.00
29935;BME280;19905;53.370;-6.314;2023-04-19T06:13:22;102383.19;;;8.09;100.00
29935;BME280;19905;53.370;-6.314;2023-04-19T06:15:52;102374.16;;;8.16;100.00
29935;BME280;19905;53.370;-6.314;2023-04-19T06:18:21;102374.50;;;8.07;100.00
29935;BME280;19905;53.370;-6.314;2023-04-19T06:20:49;102368.56;;;8.02;100.00
29935;BME280;19905;53.370;-6.314;2023-04-19T06:23:18;102370.28;;;8.03;100.00
29935;BME280;19905;53.370;-6.314;2023-04-19T06:25:47;102372.59;;;8.10;100.00
29935;BME280;19905;53.370;-6.314;2023-04-19T06:28:15;102358.66;;;8.08;100.00
29935;BME280;19905;53.370;-6.314;2023-04-19T06:30:44;102371.81;;;8.08;100.00
29935;BME280;19905;53.370;-6.314;2023-04-19T06:33:14;102357.88;;;8.06;100.00
29935;BME280;19905;53.370;-6.314;2023-04-19T06:35:42;102359.44;;;8.10;100.00
29935;BME280;19905;53.370;-6.314;2023-04-19T06:38:11;102353.28;;;8.11;100.00
29935;BME280;19905;53.370;-6.314;2023-04-19T06:40:39;102355.94;;;8.10;100.00
29935;BME280;19905;53.370;-6.314;2023-04-19T06:43:08;102359.31;;;8.13;100.00
29935;BME280;19905;53.370;-6.314;2023-04-19T06:45:36;102358.28;;;8.18;100.00
29935;BME280;19905;53.370;-6.314;2023-04-19T06:48:05;102362.88;;;8.12;100.00
29935;BME280;19905;53.370;-6.314;2023-04-19T06:50:36;102365.41;;;8.15;100.00
29935;BME280;19905;53.370;-6.314;2023-04-19T06:53:04;102352.06;;;8.20;100.00
29935;BME280;19905;53.370;-6.314;2023-04-19T06:55:33;102363.56;;;8.18;100.00
29935;BME280;19905;53.370;-6.314;2023-04-19T06:58:02;102358.69;;;8.29;100.00
29935;BME280;19905;53.370;-6.314;2023-04-19T07:00:33;102355.94;;;8.32;100.00
29935;BME280;19905;53.370;-6.314;2023-04-19T07:03:02;102363.91;;;8.30;100.00
29935;BME280;19905;53.370;-6.314;2023-04-19T07:05:31;102364.69;;;8.32;100.00
29935;BME280;19905;53.370;-6.314;2023-04-19T07:08:01;102359.16;;;8.40;100.00
29935;BME280;19905;53.370;-6.314;2023-04-19T07:10:30;102363.91;;;8.30;100.00
29935;BME280;19905;53.370;-6.314;2023-04-19T07:12:59;102356.03;;;8.30;100.00
29935;BME280;19905;53.370;-6.314;2023-04-19T07:15:27;102357.53;;;8.36;100.00
29935;BME280;19905;53.370;-6.314;2023-04-19T07:17:56;102361.63;;;8.45;100.00
29935;BME280;19905;53.370;-6.314;2023-04-19T07:20:24;102368.97;;;8.36;100.00
29935;BME280;19905;53.370;-6.314;2023-04-19T07:22:53;102363.75;;;8.35;100.00
29935;BME280;19905;53.370;-6.314;2023-04-19T07:25:23;102367.06;;;8.40;100.00
29935;BME280;19905;53.370;-6.314;2023-04-19T07:27:52;102360.81;;;8.43;100.00
29935;BME280;19905;53.370;-6.314;2023-04-19T07:30:21;102362.66;;;8.40;100.00
29935;BME280;19905;53.370;-6.314;2023-04-19T07:32:50;102366.38;;;8.35;100.00
29935;BME280;19905;53.370;-6.314;2023-04-19T07:35:19;102367.06;;;8.40;100.00
29935;BME280;19905;53.370;-6.314;2023-04-19T07:37:48;102357.09;;;8.48;100.00
29935;BME280;19905;53.370;-6.314;2023-04-19T07:40:17;102361.22;;;8.54;100.00
29935;BME280;19905;53.370;-6.314;2023-04-19T07:42:47;102345.81;;;8.65;100.00
29935;BME280;19905;53.370;-6.314;2023-04-19T07:45:16;102356.06;;;8.73;100.00
29935;BME280;19905;53.370;-6.314;2023-04-19T07:47:45;102349.94;;;8.72;100.00
29935;BME280;19905;53.370;-6.314;2023-04-19T07:50:13;102336.94;;;8.68;100.00
29935;BME280;19905;53.370;-6.314;2023-04-19T07:52:42;102358.94;;;8.67;100.00
29935;BME280;19905;53.370;-6.314;2023-04-19T07:55:11;102351.09;;;8.65;100.00
29935;BME280;19905;53.370;-6.314;2023-04-19T07:57:40;102348.94;;;8.75;100.00
29935;BME280;19905;53.370;-6.314;2023-04-19T08:00:15;102351.97;;;8.86;100.00
29935;BME280;19905;53.370;-6.314;2023-04-19T08:02:44;102355.13;;;8.74;100.00
29935;BME280;19905;53.370;-6.314;2023-04-19T08:05:13;102355.97;;;8.74;100.00
29935;BME280;19905;53.370;-6.314;2023-04-19T08:07:43;102359.53;;;8.73;100.00
29935;BME280;19905;53.370;-6.314;2023-04-19T08:10:13;102353.22;;;8.77;100.00
29935;BME280;19905;53.370;-6.314;2023-04-19T08:12:43;102357.38;;;8.83;100.00
29935;BME280;19905;53.370;-6.314;2023-04-19T08:15:32;102369.38;;;8.90;100.00
29935;BME280;19905;53.370;-6.314;2023-04-19T08:18:03;102362.19;;;8.94;100.00
29935;BME280;19905;53.370;-6.314;2023-04-19T08:20:32;102363.31;;;9.08;100.00
29935;BME280;19905;53.370;-6.314;2023-04-19T08:23:01;102347.88;;;8.99;100.00
29935;BME280;19905;53.370;-6.314;2023-04-19T08:25:48;102355.84;;;8.98;100.00
29935;BME280;19905;53.370;-6.314;2023-04-19T08:28:17;102366.66;;;8.91;100.00
29935;BME280;19905;53.370;-6.314;2023-04-19T08:30:47;102376.28;;;9.13;100.00
29935;BME280;19905;53.370;-6.314;2023-04-19T08:33:16;102373.66;;;9.13;100.00
29935;BME280;19905;53.370;-6.314;2023-04-19T08:35:45;102375.94;;;9.21;100.00
29935;BME280;19905;53.370;-6.314;2023-04-19T08:38:13;102367.56;;;9.11;100.00
29935;BME280;19905;53.370;-6.314;2023-04-19T08:40:45;102372.34;;;9.03;100.00
29935;BME280;19905;53.370;-6.314;2023-04-19T08:43:15;102372.00;;;8.90;100.00
29935;BME280;19905;53.370;-6.314;2023-04-19T08:45:47;102379.97;;;9.09;100.00
29935;BME280;19905;53.370;-6.314;2023-04-19T08:48:16;102371.75;;;9.16;100.00
29935;BME280;19905;53.370;-6.314;2023-04-19T08:50:45;102368.63;;;9.07;100.00
29935;BME280;19905;53.370;-6.314;2023-04-19T08:53:32;102379.16;;;9.07;100.00
29935;BME280;19905;53.370;-6.314;2023-04-19T08:56:02;102378.31;;;9.06;100.00
29935;BME280;19905;53.370;-6.314;2023-04-19T08:58:46;102379.97;;;9.09;100.00
29935;BME280;19905;53.370;-6.314;2023-04-19T09:01:36;102369.22;;;9.13;100.00
29935;BME280;19905;53.370;-6.314;2023-04-19T09:04:07;102377.22;;;9.12;100.00
29935;BME280;19905;53.370;-6.314;2023-04-19T09:06:55;102378.75;;;9.16;100.00
29935;BME280;19905;53.370;-6.314;2023-04-19T09:09:26;102375.72;;;9.25;100.00
29935;BME280;19905;53.370;-6.314;2023-04-19T09:12:15;102376.53;;;9.27;100.00
29935;BME280;19905;53.370;-6.314;2023-04-19T09:14:45;102375.88;;;9.22;100.00
29935;BME280;19905;53.370;-6.314;2023-04-19T09:17:18;102372.44;;;9.20;100.00
29935;BME280;19905;53.370;-6.314;2023-04-19T09:19:48;102377.06;;;9.15;100.00
29935;BME280;19905;53.370;-6.314;2023-04-19T09:22:17;102386.44;;;9.22;100.00
29935;BME280;19905;53.370;-6.314;2023-04-19T09:24:46;102392.19;;;9.51;100.00
29935;BME280;19905;53.370;-6.314;2023-04-19T09:27:28;102378.63;;;9.39;100.00
29935;BME280;19905;53.370;-6.314;2023-04-19T09:29:59;102376.28;;;9.52;100.00
29935;BME280;19905;53.370;-6.314;2023-04-19T09:32:44;102368.44;;;9.51;100.00
29935;BME280;19905;53.370;-6.314;2023-04-19T09:35:15;102383.91;;;9.39;100.00
29935;BME280;19905;53.370;-6.314;2023-04-19T09:37:57;102374.25;;;9.38;100.00
29935;BME280;19905;53.370;-6.314;2023-04-19T09:40:29;102371.81;;;9.34;100.00
29935;BME280;19905;53.370;-6.314;2023-04-19T09:42:57;102371.72;;;9.56;100.00
29935;BME280;19905;53.370;-6.314;2023-04-19T09:45:46;102376.66;;;9.63;100.00
29935;BME280;19905;53.370;-6.314;2023-04-19T09:48:16;102376.66;;;9.63;100.00
29935;BME280;19905;53.370;-6.314;2023-04-19T09:50:52;102373.47;;;9.36;100.00
29935;BME280;19905;53.370;-6.314;2023-04-19T09:53:31;102373.19;;;9.42;100.00
29935;BME280;19905;53.370;-6.314;2023-04-19T09:56:01;102365.03;;;9.49;100.00
29935;BME280;19905;53.370;-6.314;2023-04-19T09:58:33;102368.88;;;9.60;100.00
29935;BME280;19905;53.370;-6.314;2023-04-19T10:01:19;102359.97;;;9.63;100.00
29935;BME280;19905;53.370;-6.314;2023-04-19T10:03:50;102365.38;;;9.60;100.00
29935;BME280;19905;53.370;-6.314;2023-04-19T10:06:21;102366.88;;;9.65;100.00
29935;BME280;19905;53.370;-6.314;2023-04-19T10:08:53;102366.41;;;9.95;100.00
29935;BME280;19905;53.370;-6.314;2023-04-19T10:11:25;102371.09;;;9.70;100.00
29935;BME280;19905;53.370;-6.314;2023-04-19T10:13:59;102366.94;;;9.45;100.00
29935;BME280;19905;53.370;-6.314;2023-04-19T10:16:29;102375.81;;;9.63;100.00
29935;BME280;19905;53.370;-6.314;2023-04-19T10:19:02;102372.78;;;9.52;100.00
29935;BME280;19905;53.370;-6.314;2023-04-19T10:21:34;102378.00;;;9.53;100.00
29935;BME280;19905;53.370;-6.314;2023-04-19T10:24:05;102376.88;;;9.59;100.00
29935;BME280;19905;53.370;-6.314;2023-04-19T10:27:05;102376.28;;;9.71;100.00
29935;BME280;19905;53.370;-6.314;2023-04-19T10:29:56;102373.81;;;9.68;100.00
29935;BME280;19905;53.370;-6.314;2023-04-19T10:32:28;102379.34;;;9.62;100.00
29935;BME280;19905;53.370;-6.314;2023-04-19T10:35:07;102386.06;;;9.69;100.00
29935;BME280;19905;53.370;-6.314;2023-04-19T10:37:39;102382.28;;;9.56;100.00
29935;BME280;19905;53.370;-6.314;2023-04-19T10:40:09;102381.94;;;9.63;100.00
29935;BME280;19905;53.370;-6.314;2023-04-19T10:43:13;102369.69;;;9.62;100.00
29935;BME280;19905;53.370;-6.314;2023-04-19T10:45:42;102376.97;;;9.76;100.00
29935;BME280;19905;53.370;-6.314;2023-04-19T10:48:36;102371.50;;;9.60;100.00
29935;BME280;19905;53.370;-6.314;2023-04-19T10:51:13;102373.16;;;9.63;100.00
29935;BME280;19905;53.370;-6.314;2023-04-19T10:53:45;102379.66;;;9.75;100.00
29935;BME280;19905;53.370;-6.314;2023-04-19T10:56:16;102368.22;;;9.93;100.00
29935;BME280;19905;53.370;-6.314;2023-04-19T10:59:15;102364.75;;;9.92;100.00
29935;BME280;19905;53.370;-6.314;2023-04-19T11:01:52;102369.69;;;9.81;100.00
29935;BME280;19905;53.370;-6.314;2023-04-19T11:04:23;102361.34;;;9.72;100.00
29935;BME280;19905;53.370;-6.314;2023-04-19T11:07:14;102378.88;;;9.73;100.00
29935;BME280;19905;53.370;-6.314;2023-04-19T11:09:45;102367.31;;;9.75;100.00
29935;BME280;19905;53.370;-6.314;2023-04-19T11:12:15;102366.19;;;9.81;100.00
29935;BME280;19905;53.370;-6.314;2023-04-19T11:14:46;102373.22;;;9.80;100.00
29935;BME280;19905;53.370;-6.314;2023-04-19T11:17:16;102370.88;;;9.74;100.00
29935;BME280;19905;53.370;-6.314;2023-04-19T11:19:52;102371.22;;;9.66;100.00
29935;BME280;19905;53.370;-6.314;2023-04-19T11:22:29;102362.03;;;9.75;100.00
29935;BME280;19905;53.370;-6.314;2023-04-19T11:25:05;102371.81;;;9.73;100.00
29935;BME280;19905;53.370;-6.314;2023-04-19T11:27:33;102362.66;;;9.80;100.00
29935;BME280;19905;53.370;-6.314;2023-04-19T11:30:04;102365.88;;;9.87;100.00
29935;BME280;19905;53.370;-6.314;2023-04-19T11:32:33;102362.94;;;10.12;100.00
29935;BME280;19905;53.370;-6.314;2023-04-19T11:35:04;102365.16;;;10.02;100.00
29935;BME280;19905;53.370;-6.314;2023-04-19T11:37:36;102356.03;;;10.09;100.00
29935;BME280;19905;53.370;-6.314;2023-04-19T11:40:06;102352.09;;;10.18;100.00
29935;BME280;19905;53.370;-6.314;2023-04-19T11:42:35;102356.75;;;10.13;100.00
29935;BME280;19905;53.370;-6.314;2023-04-19T11:45:06;102350.44;;;10.15;100.00
29935;BME280;19905;53.370;-6.314;2023-04-19T11:47:52;102351.38;;;10.14;100.00
29935;BME280;19905;53.370;-6.314;2023-04-19T11:50:32;102354.25;;;10.10;100.00
29935;BME280;19905;53.370;-6.314;2023-04-19T11:53:11;102361.09;;;10.14;100.00
29935;BME280;19905;53.370;-6.314;2023-04-19T11:55:45;102357.72;;;10.10;100.00
29935;BME280;19905;53.370;-6.314;2023-04-19T11:58:27;102355.00;;;10.12;100.00
29935;BME280;19905;53.370;-6.314;2023-04-19T12:01:03;102358.38;;;10.15;100.00
29935;BME280;19905;53.370;-6.314;2023-04-19T12:03:34;102353.16;;;10.14;100.00
29935;BME280;19905;53.370;-6.314;2023-04-19T12:06:03;102360.69;;;10.22;100.00
29935;BME280;19905;53.370;-6.314;2023-04-19T12:08:37;102358.28;;;10.17;100.00
29935;BME280;19905;53.370;-6.314;2023-04-19T12:11:06;102363.41;;;10.20;100.00
29935;BME280;19905;53.370;-6.314;2023-04-19T12:13:35;102355.09;;;10.10;100.00
29935;BME280;19905;53.370;-6.314;2023-04-19T12:16:07;102352.31;;;10.13;100.00
29935;BME280;19905;53.370;-6.314;2023-04-19T12:18:45;102345.75;;;10.03;100.00
29935;BME280;19905;53.370;-6.314;2023-04-19T12:21:26;102340.00;;;10.12;100.00
29935;BME280;19905;53.370;-6.314;2023-04-19T12:23:58;102339.50;;;10.23;100.00
29935;BME280;19905;53.370;-6.314;2023-04-19T12:26:28;102344.44;;;10.31;100.00
29935;BME280;19905;53.370;-6.314;2023-04-19T12:28:58;102332.97;;;10.32;100.00
29935;BME280;19905;53.370;-6.314;2023-04-19T12:31:30;102331.19;;;10.67;100.00
29935;BME280;19905;53.370;-6.314;2023-04-19T12:33:59;102318.44;;;10.75;100.00
29935;BME280;19905;53.370;-6.314;2023-04-19T12:36:27;102315.72;;;10.59;100.00
29935;BME280;19905;53.370;-6.314;2023-04-19T12:38:58;102313.47;;;10.86;100.00
29935;BME280;19905;53.370;-6.314;2023-04-19T12:41:26;102312.19;;;11.27;100.00
29935;BME280;19905;53.370;-6.314;2023-04-19T12:43:55;102303.06;;;10.99;100.00
29935;BME280;19905;53.370;-6.314;2023-04-19T12:46:23;102313.28;;;10.89;100.00
29935;BME280;19905;53.370;-6.314;2023-04-19T12:48:53;102303.88;;;10.84;100.00
29935;BME280;19905;53.370;-6.314;2023-04-19T12:51:21;102300.44;;;10.99;100.00
29935;BME280;19905;53.370;-6.314;2023-04-19T12:53:51;102303.25;;;10.96;100.00
29935;BME280;19905;53.370;-6.314;2023-04-19T12:56:21;102299.94;;;11.08;100.00
29935;BME280;19905;53.370;-6.314;2023-04-19T12:58:50;102296.56;;;11.22;100.00
29935;BME280;19905;53.370;-6.314;2023-04-19T13:01:18;102299.41;;;11.19;100.00